sensor_id;sensor_type;location;lat;lon;timestamp;temperature;humidity
25046;DHT22;13044;49.304;12.840;2023-08-08T00:01:49;12.70;99.90
25046;DHT22;13044;49.304;12.840;2023-08-08T00:04:16;12.70;99.90
25046;DHT22;13044;49.304;12.840;2023-08-08T00:06:43;12.70;99.90
25046;DHT22;13044;49.304;12.840;2023-08-08T00:09:10;12.70;99.90
25046;DHT22;13044;49.304;12.840;2023-08-08T00:11:37;12.70;99.90
25046;DHT22;13044;49.304;12.840;2023-08-08T00:14:04;12.60;99.90
25046;DHT22;13044;49.304;12.840;2023-08-08T00:16:30;12.60;99.90
25046;DHT22;13044;49.304;12.840;2023-08-08T00:18:57;12.60;99.90
25046;DHT22;13044;49.304;12.840;2023-08-08T00:21:24;12.60;99.90
25046;DHT22;13044;49.304;12.840;2023-08-08T00:23:51;12.60;99.90
25046;DHT22;13044;49.304;12.840;2023-08-08T00:26:18;12.60;99.90
25046;DHT22;13044;49.304;12.840;2023-08-08T00:28:45;12.50;99.90
25046;DHT22;13044;49.304;12.840;2023-08-08T00:31:11;12.50;99.90
25046;DHT22;13044;49.304;12.840;2023-08-08T00:33:38;12.50;99.90
25046;DHT22;13044;49.304;12.840;2023-08-08T00:36:05;12.50;99.90
25046;DHT22;13044;49.304;12.840;2023-08-08T00:38:32;12.40;99.90
25046;DHT22;13044;49.304;12.840;2023-08-08T00:40:59;12.40;99.90
25046;DHT22;13044;49.304;12.840;2023-08-08T00:43:26;12.40;99.90
25046;DHT22;13044;49.304;12.840;2023-08-08T00:45:53;12.40;99.90
25046;DHT22;13044;49.304;12.840;2023-08-08T00:48:20;12.40;99.90
25046;DHT22;13044;49.304;12.840;2023-08-08T00:50:48;12.40;99.90
25046;DHT22;13044;49.304;12.840;2023-08-08T00:53:18;12.30;99.90
25046;DHT22;13044;49.304;12.840;2023-08-08T00:55:46;12.30;99.90
25046;DHT22;13044;49.304;12.840;2023-08-08T00:58:13;12.20;99.90
25046;DHT22;13044;49.304;12.840;2023-08-08T01:00:42;12.20;99.90
25046;DHT22;13044;49.304;12.840;2023-08-08T01:03:09;12.20;99.90
25046;DHT22;13044;49.304;12.840;2023-08-08T01:05:41;12.20;99.90
25046;DHT22;13044;49.304;12.840;2023-08-08T01:08:11;12.10;99.90
25046;DHT22;13044;49.304;12.840;2023-08-08T01:10:43;12.10;99.90
25046;DHT22;13044;49.304;12.840;2023-08-08T01:13:19;12.10;99.90
25046;DHT22;13044;49.304;12.840;2023-08-08T01:15:49;12.10;99.90
25046;DHT22;13044;49.304;12.840;2023-08-08T01:18:17;12.10;99.90
25046;DHT22;13044;49.304;12.840;2023-08-08T01:20:46;12.10;99.90
25046;DHT22;13044;49.304;12.840;2023-08-08T01:23:34;12.00;99.90
25046;DHT22;13044;49.304;12.840;2023-08-08T01:26:12;12.00;99.90
25046;DHT22;13044;49.304;12.840;2023-08-08T01:28:41;12.00;99.90
25046;DHT22;13044;49.304;12.840;2023-08-08T01:31:09;12.00;99.90
25046;DHT22;13044;49.304;12.840;2023-08-08T01:33:36;12.10;99.90
25046;DHT22;13044;49.304;12.840;2023-08-08T01:36:12;12.10;99.90
25046;DHT22;13044;49.304;12.840;2023-08-08T01:38:47;12.10;99.90
25046;DHT22;13044;49.304;12.840;2023-08-08T01:41:15;12.10;99.90
25046;DHT22;13044;49.304;12.840;2023-08-08T01:43:43;12.10;99.90
25046;DHT22;13044;49.304;12.840;2023-08-08T01:46:10;12.10;99.90
25046;DHT22;13044;49.304;12.840;2023-08-08T01:48:37;12.10;99.90
25046;DHT22;13044;49.304;12.840;2023-08-08T01:51:04;12.10;99.90
25046;DHT22;13044;49.304;12.840;2023-08-08T01:53:31;12.10;99.90
25046;DHT22;13044;49.304;12.840;2023-08-08T01:55:58;12.20;99.90
25046;DHT22;13044;49.304;12.840;2023-08-08T01:58:25;12.20;99.90
25046;DHT22;13044;49.304;12.840;2023-08-08T02:00:51;12.20;99.90
25046;DHT22;13044;49.304;12.840;2023-08-08T02:03:18;12.20;99.90
25046;DHT22;13044;49.304;12.840;2023-08-08T02:05:45;12.20;99.90
25046;DHT22;13044;49.304;12.840;2023-08-08T02:08:12;12.20;99.90
25046;DHT22;13044;49.304;12.840;2023-08-08T02:10:39;12.20;99.90
25046;DHT22;13044;49.304;12.840;2023-08-08T02:13:06;12.20;99.90
25046;DHT22;13044;49.304;12.840;2023-08-08T02:15:33;12.30;99.90
25046;DHT22;13044;49.304;12.840;2023-08-08T02:18:00;12.30;99.90
25046;DHT22;13044;49.304;12.840;2023-08-08T02:20:27;12.30;99.90
25046;DHT22;13044;49.304;12.840;2023-08-08T02:22:54;12.30;99.90
25046;DHT22;13044;49.304;12.840;2023-08-08T02:25:21;12.30;99.90
25046;DHT22;13044;49.304;12.840;2023-08-08T02:27:48;12.30;99.90
25046;DHT22;13044;49.304;12.840;2023-08-08T02:30:15;12.30;99.90
25046;DHT22;13044;49.304;12.840;2023-08-08T02:32:42;12.30;99.90
25046;DHT22;13044;49.304;12.840;2023-08-08T02:35:09;12.30;99.90
25046;DHT22;13044;49.304;12.840;2023-08-08T02:37:36;12.30;99.90
25046;DHT22;13044;49.304;12.840;2023-08-08T02:40:04;12.30;99.90
25046;DHT22;13044;49.304;12.840;2023-08-08T02:42:32;12.30;99.90
25046;DHT22;13044;49.304;12.840;2023-08-08T02:44:59;12.30;99.90
25046;DHT22;13044;49.304;12.840;2023-08-08T02:47:26;12.30;99.90
25046;DHT22;13044;49.304;12.840;2023-08-08T02:49:53;12.30;99.90
25046;DHT22;13044;49.304;12.840;2023-08-08T02:52:19;12.20;99.90
25046;DHT22;13044;49.304;12.840;2023-08-08T02:54:46;12.20;99.90
25046;DHT22;13044;49.304;12.840;2023-08-08T02:57:13;12.20;99.90
25046;DHT22;13044;49.304;12.840;2023-08-08T02:59:40;12.20;99.90
25046;DHT22;13044;49.304;12.840;2023-08-08T03:02:07;12.20;99.90
25046;DHT22;13044;49.304;12.840;2023-08-08T03:04:34;12.20;99.90
25046;DHT22;13044;49.304;12.840;2023-08-08T03:07:01;12.20;99.90
25046;DHT22;13044;49.304;12.840;2023-08-08T03:13:37;12.20;99.90
25046;DHT22;13044;49.304;12.840;2023-08-08T03:16:04;12.20;99.90
25046;DHT22;13044;49.304;12.840;2023-08-08T03:18:31;12.20;99.90
25046;DHT22;13044;49.304;12.840;2023-08-08T03:20:58;12.20;99.90
25046;DHT22;13044;49.304;12.840;2023-08-08T03:23:25;12.20;99.90
25046;DHT22;13044;49.304;12.840;2023-08-08T03:25:52;12.20;99.90
25046;DHT22;13044;49.304;12.840;2023-08-08T03:28:19;12.20;99.90
25046;DHT22;13044;49.304;12.840;2023-08-08T03:30:46;12.20;99.90
25046;DHT22;13044;49.304;12.840;2023-08-08T03:33:13;12.20;99.90
25046;DHT22;13044;49.304;12.840;2023-08-08T03:35:39;12.20;99.90
25046;DHT22;13044;49.304;12.840;2023-08-08T03:38:06;12.20;99.90
25046;DHT22;13044;49.304;12.840;2023-08-08T03:40:34;12.30;99.90
25046;DHT22;13044;49.304;12.840;2023-08-08T03:43:01;12.30;99.90
25046;DHT22;13044;49.304;12.840;2023-08-08T03:45:28;12.30;99.90
25046;DHT22;13044;49.304;12.840;2023-08-08T03:47:55;12.30;99.90
25046;DHT22;13044;49.304;12.840;2023-08-08T03:50:22;12.30;99.90
25046;DHT22;13044;49.304;12.840;2023-08-08T03:52:49;12.30;99.90
25046;DHT22;13044;49.304;12.840;2023-08-08T03:55:16;12.30;99.90
25046;DHT22;13044;49.304;12.840;2023-08-08T03:57:43;12.30;99.90
25046;DHT22;13044;49.304;12.840;2023-08-08T04:00:10;12.30;99.90
25046;DHT22;13044;49.304;12.840;2023-08-08T04:02:38;12.40;99.90
25046;DHT22;13044;49.304;12.840;2023-08-08T04:05:05;12.40;99.90
25046;DHT22;13044;49.304;12.840;2023-08-08T04:07:32;12.40;99.90
25046;DHT22;13044;49.304;12.840;2023-08-08T04:09:59;12.40;99.90
25046;DHT22;13044;49.304;12.840;2023-08-08T04:12:26;12.40;99.90
25046;DHT22;13044;49.304;12.840;2023-08-08T04:14:53;12.50;99.90
25046;DHT22;13044;49.304;12.840;2023-08-08T04:17:20;12.50;99.90
25046;DHT22;13044;49.304;12.840;2023-08-08T04:19:47;12.50;99.90
25046;DHT22;13044;49.304;12.840;2023-08-08T04:22:14;12.50;99.90
25046;DHT22;13044;49.304;12.840;2023-08-08T04:24:42;12.60;99.90
25046;DHT22;13044;49.304;12.840;2023-08-08T04:27:09;12.60;99.90
25046;DHT22;13044;49.304;12.840;2023-08-08T04:29:36;12.60;99.90
25046;DHT22;13044;49.304;12.840;2023-08-08T04:32:04;12.60;99.90
25046;DHT22;13044;49.304;12.840;2023-08-08T04:34:31;12.60;99.90
25046;DHT22;13044;49.304;12.840;2023-08-08T04:36:58;12.60;99.90
25046;DHT22;13044;49.304;12.840;2023-08-08T04:39:25;12.60;99.90
25046;DHT22;13044;49.304;12.840;2023-08-08T04:41:52;12.60;99.90
25046;DHT22;13044;49.304;12.840;2023-08-08T04:44:18;12.60;99.90
25046;DHT22;13044;49.304;12.840;2023-08-08T04:46:45;12.70;99.90
25046;DHT22;13044;49.304;12.840;2023-08-08T04:49:12;12.70;99.90
25046;DHT22;13044;49.304;12.840;2023-08-08T04:51:39;12.70;99.90
25046;DHT22;13044;49.304;12.840;2023-08-08T04:54:06;12.70;99.90
25046;DHT22;13044;49.304;12.840;2023-08-08T04:56:33;12.70;99.90
25046;DHT22;13044;49.304;12.840;2023-08-08T04:59:00;12.80;99.90
25046;DHT22;13044;49.304;12.840;2023-08-08T05:01:27;12.80;99.90
25046;DHT22;13044;49.304;12.840;2023-08-08T05:03:53;12.80;99.90
25046;DHT22;13044;49.304;12.840;2023-08-08T05:06:22;12.80;99.90
25046;DHT22;13044;49.304;12.840;2023-08-08T05:08:51;12.80;99.90
25046;DHT22;13044;49.304;12.840;2023-08-08T05:11:18;12.90;99.90
25046;DHT22;13044;49.304;12.840;2023-08-08T05:13:45;12.90;99.90
25046;DHT22;13044;49.304;12.840;2023-08-08T05:16:12;12.90;99.90
25046;DHT22;13044;49.304;12.840;2023-08-08T05:18:39;12.90;99.90
25046;DHT22;13044;49.304;12.840;2023-08-08T05:21:06;13.00;99.90
25046;DHT22;13044;49.304;12.840;2023-08-08T05:23:33;13.00;99.90
25046;DHT22;13044;49.304;12.840;2023-08-08T05:26:00;13.00;99.90
25046;DHT22;13044;49.304;12.840;2023-08-08T05:28:27;13.00;99.90
25046;DHT22;13044;49.304;12.840;2023-08-08T05:30:54;13.00;99.90
25046;DHT22;13044;49.304;12.840;2023-08-08T05:33:21;13.00;99.90
25046;DHT22;13044;49.304;12.840;2023-08-08T05:35:47;13.00;99.90
25046;DHT22;13044;49.304;12.840;2023-08-08T05:38:14;13.00;99.90
25046;DHT22;13044;49.304;12.840;2023-08-08T05:40:41;13.00;99.90
25046;DHT22;13044;49.304;12.840;2023-08-08T05:43:08;13.10;99.90
25046;DHT22;13044;49.304;12.840;2023-08-08T05:45:35;13.10;99.90
25046;DHT22;13044;49.304;12.840;2023-08-08T05:48:02;13.10;99.90
25046;DHT22;13044;49.304;12.840;2023-08-08T05:50:29;13.10;99.90
25046;DHT22;13044;49.304;12.840;2023-08-08T05:52:56;13.10;99.90
25046;DHT22;13044;49.304;12.840;2023-08-08T05:55:23;13.20;99.90
25046;DHT22;13044;49.304;12.840;2023-08-08T05:57:50;13.20;99.90
25046;DHT22;13044;49.304;12.840;2023-08-08T06:00:17;13.30;99.90
25046;DHT22;13044;49.304;12.840;2023-08-08T06:02:44;13.30;99.90
25046;DHT22;13044;49.304;12.840;2023-08-08T06:05:11;13.40;99.90
25046;DHT22;13044;49.304;12.840;2023-08-08T06:07:38;13.40;99.90
25046;DHT22;13044;49.304;12.840;2023-08-08T06:10:06;13.40;99.90
25046;DHT22;13044;49.304;12.840;2023-08-08T06:12:34;13.50;99.90
25046;DHT22;13044;49.304;12.840;2023-08-08T06:15:02;13.50;99.90
25046;DHT22;13044;49.304;12.840;2023-08-08T06:17:30;13.60;99.90
25046;DHT22;13044;49.304;12.840;2023-08-08T06:19:57;13.60;99.90
25046;DHT22;13044;49.304;12.840;2023-08-08T06:22:24;13.70;99.90
25046;DHT22;13044;49.304;12.840;2023-08-08T06:24:51;13.70;99.90
25046;DHT22;13044;49.304;12.840;2023-08-08T06:27:18;13.80;99.90
25046;DHT22;13044;49.304;12.840;2023-08-08T06:29:45;13.80;99.90
25046;DHT22;13044;49.304;12.840;2023-08-08T06:32:12;13.80;99.90
25046;DHT22;13044;49.304;12.840;2023-08-08T06:34:39;13.80;99.90
25046;DHT22;13044;49.304;12.840;2023-08-08T06:37:06;13.90;99.90
25046;DHT22;13044;49.304;12.840;2023-08-08T06:39:33;13.90;99.90
25046;DHT22;13044;49.304;12.840;2023-08-08T06:42:01;14.00;99.90
25046;DHT22;13044;49.304;12.840;2023-08-08T06:44:28;14.00;99.90
25046;DHT22;13044;49.304;12.840;2023-08-08T06:46:55;14.10;99.90
25046;DHT22;13044;49.304;12.840;2023-08-08T06:49:22;14.10;99.90
25046;DHT22;13044;49.304;12.840;2023-08-08T06:51:49;14.20;99.90
25046;DHT22;13044;49.304;12.840;2023-08-08T06:54:16;14.20;99.90
25046;DHT22;13044;49.304;12.840;2023-08-08T06:56:43;14.30;99.90
25046;DHT22;13044;49.304;12.840;2023-08-08T06:59:10;14.30;99.90
25046;DHT22;13044;49.304;12.840;2023-08-08T07:01:37;14.30;99.90
25046;DHT22;13044;49.304;12.840;2023-08-08T07:04:04;14.40;99.90
25046;DHT22;13044;49.304;12.840;2023-08-08T07:06:31;14.50;99.90
25046;DHT22;13044;49.304;12.840;2023-08-08T07:08:58;14.50;99.90
25046;DHT22;13044;49.304;12.840;2023-08-08T07:11:25;14.60;99.90
25046;DHT22;13044;49.304;12.840;2023-08-08T07:13:52;14.70;99.90
25046;DHT22;13044;49.304;12.840;2023-08-08T07:16:19;14.80;99.90
25046;DHT22;13044;49.304;12.840;2023-08-08T07:18:46;14.90;99.90
25046;DHT22;13044;49.304;12.840;2023-08-08T07:21:15;15.00;99.90
25046;DHT22;13044;49.304;12.840;2023-08-08T07:23:42;15.00;99.90
25046;DHT22;13044;49.304;12.840;2023-08-08T07:26:09;15.10;99.90
25046;DHT22;13044;49.304;12.840;2023-08-08T07:28:36;15.10;99.90
25046;DHT22;13044;49.304;12.840;2023-08-08T07:31:03;15.20;99.90
25046;DHT22;13044;49.304;12.840;2023-08-08T07:33:30;15.30;99.90
25046;DHT22;13044;49.304;12.840;2023-08-08T07:35:58;15.30;99.90
25046;DHT22;13044;49.304;12.840;2023-08-08T07:38:25;15.30;99.90
25046;DHT22;13044;49.304;12.840;2023-08-08T07:40:52;15.40;99.90
25046;DHT22;13044;49.304;12.840;2023-08-08T07:43:19;15.40;99.90
25046;DHT22;13044;49.304;12.840;2023-08-08T07:45:47;15.50;99.90
25046;DHT22;13044;49.304;12.840;2023-08-08T07:48:14;15.60;99.90
25046;DHT22;13044;49.304;12.840;2023-08-08T07:50:41;15.60;99.90
25046;DHT22;13044;49.304;12.840;2023-08-08T07:53:08;15.70;99.90
25046;DHT22;13044;49.304;12.840;2023-08-08T07:55:35;15.80;99.90
25046;DHT22;13044;49.304;12.840;2023-08-08T07:58:02;16.00;99.90
25046;DHT22;13044;49.304;12.840;2023-08-08T08:00:29;16.20;99.90
25046;DHT22;13044;49.304;12.840;2023-08-08T08:02:57;16.30;99.90
25046;DHT22;13044;49.304;12.840;2023-08-08T08:05:24;16.50;99.90
25046;DHT22;13044;49.304;12.840;2023-08-08T08:07:51;16.60;99.90
25046;DHT22;13044;49.304;12.840;2023-08-08T08:10:18;16.80;99.90
25046;DHT22;13044;49.304;12.840;2023-08-08T08:12:44;17.00;99.90
25046;DHT22;13044;49.304;12.840;2023-08-08T08:15:11;17.10;99.90
25046;DHT22;13044;49.304;12.840;2023-08-08T08:17:40;17.20;99.90
25046;DHT22;13044;49.304;12.840;2023-08-08T08:20:08;17.40;99.90
25046;DHT22;13044;49.304;12.840;2023-08-08T08:22:38;17.50;99.90
25046;DHT22;13044;49.304;12.840;2023-08-08T08:25:06;17.60;99.90
25046;DHT22;13044;49.304;12.840;2023-08-08T08:27:36;17.60;99.90
25046;DHT22;13044;49.304;12.840;2023-08-08T08:30:07;17.60;99.90
25046;DHT22;13044;49.304;12.840;2023-08-08T08:32:40;17.60;99.90
25046;DHT22;13044;49.304;12.840;2023-08-08T08:35:09;17.70;99.90
25046;DHT22;13044;49.304;12.840;2023-08-08T08:37:36;17.80;99.90
25046;DHT22;13044;49.304;12.840;2023-08-08T08:40:03;17.80;99.90
25046;DHT22;13044;49.304;12.840;2023-08-08T08:42:32;17.80;99.90
25046;DHT22;13044;49.304;12.840;2023-08-08T08:45:02;17.70;99.90
25046;DHT22;13044;49.304;12.840;2023-08-08T08:47:31;17.80;99.90
25046;DHT22;13044;49.304;12.840;2023-08-08T08:50:00;18.00;99.90
25046;DHT22;13044;49.304;12.840;2023-08-08T08:52:29;18.10;99.90
25046;DHT22;13044;49.304;12.840;2023-08-08T08:54:57;18.10;99.90
25046;DHT22;13044;49.304;12.840;2023-08-08T08:57:24;18.10;99.90
25046;DHT22;13044;49.304;12.840;2023-08-08T08:59:51;18.10;99.90
25046;DHT22;13044;49.304;12.840;2023-08-08T09:02:19;18.20;99.90
25046;DHT22;13044;49.304;12.840;2023-08-08T09:04:46;18.20;99.90
25046;DHT22;13044;49.304;12.840;2023-08-08T09:07:14;18.20;99.90
25046;DHT22;13044;49.304;12.840;2023-08-08T09:09:44;18.20;99.90
25046;DHT22;13044;49.304;12.840;2023-08-08T09:12:11;18.10;99.90
25046;DHT22;13044;49.304;12.840;2023-08-08T09:14:40;18.10;99.90
25046;DHT22;13044;49.304;12.840;2023-08-08T09:17:12;18.00;99.90
25046;DHT22;13044;49.304;12.840;2023-08-08T09:19:43;18.00;99.90
25046;DHT22;13044;49.304;12.840;2023-08-08T09:22:13;18.00;99.90
25046;DHT22;13044;49.304;12.840;2023-08-08T09:24:41;17.90;99.90
25046;DHT22;13044;49.304;12.840;2023-08-08T09:27:09;18.00;99.90
25046;DHT22;13044;49.304;12.840;2023-08-08T09:29:38;18.00;99.90
25046;DHT22;13044;49.304;12.840;2023-08-08T09:32:07;18.00;99.90
25046;DHT22;13044;49.304;12.840;2023-08-08T09:34:35;18.00;99.90
25046;DHT22;13044;49.304;12.840;2023-08-08T09:37:02;18.00;99.90
25046;DHT22;13044;49.304;12.840;2023-08-08T09:39:29;18.00;99.90
25046;DHT22;13044;49.304;12.840;2023-08-08T09:41:56;18.10;99.90
25046;DHT22;13044;49.304;12.840;2023-08-08T09:44:25;18.20;99.90
25046;DHT22;13044;49.304;12.840;2023-08-08T09:46:53;18.20;99.90
25046;DHT22;13044;49.304;12.840;2023-08-08T09:49:21;18.20;99.90
25046;DHT22;13044;49.304;12.840;2023-08-08T09:51:51;18.10;99.90
25046;DHT22;13044;49.304;12.840;2023-08-08T09:54:19;18.00;99.90
25046;DHT22;13044;49.304;12.840;2023-08-08T09:56:49;18.00;99.90
25046;DHT22;13044;49.304;12.840;2023-08-08T09:59:17;18.10;99.90
25046;DHT22;13044;49.304;12.840;2023-08-08T10:01:46;18.20;99.90
25046;DHT22;13044;49.304;12.840;2023-08-08T10:04:14;18.20;99.90
25046;DHT22;13044;49.304;12.840;2023-08-08T10:06:41;18.30;99.90
25046;DHT22;13044;49.304;12.840;2023-08-08T10:09:09;18.50;99.90
25046;DHT22;13044;49.304;12.840;2023-08-08T10:11:36;18.60;99.90
25046;DHT22;13044;49.304;12.840;2023-08-08T10:14:03;18.90;99.90
25046;DHT22;13044;49.304;12.840;2023-08-08T10:16:34;19.00;99.90
25046;DHT22;13044;49.304;12.840;2023-08-08T10:19:04;19.10;99.90
25046;DHT22;13044;49.304;12.840;2023-08-08T10:21:36;18.90;99.90
25046;DHT22;13044;49.304;12.840;2023-08-08T10:24:08;18.90;99.90
25046;DHT22;13044;49.304;12.840;2023-08-08T10:26:58;18.90;99.90
25046;DHT22;13044;49.304;12.840;2023-08-08T10:29:28;19.00;99.90
25046;DHT22;13044;49.304;12.840;2023-08-08T10:32:02;19.00;99.90
25046;DHT22;13044;49.304;12.840;2023-08-08T10:34:46;19.10;99.90
25046;DHT22;13044;49.304;12.840;2023-08-08T10:37:15;19.10;99.90
25046;DHT22;13044;49.304;12.840;2023-08-08T10:40:00;19.10;99.90
25046;DHT22;13044;49.304;12.840;2023-08-08T10:42:33;19.10;99.90
25046;DHT22;13044;49.304;12.840;2023-08-08T10:45:11;19.00;99.90
25046;DHT22;13044;49.304;12.840;2023-08-08T10:47:40;19.00;99.90
25046;DHT22;13044;49.304;12.840;2023-08-08T10:50:09;19.10;99.90
25046;DHT22;13044;49.304;12.840;2023-08-08T10:52:49;19.30;99.90
25046;DHT22;13044;49.304;12.840;2023-08-08T10:55:24;19.50;99.90
25046;DHT22;13044;49.304;12.840;2023-08-08T10:57:58;19.60;99.90
25046;DHT22;13044;49.304;12.840;2023-08-08T11:00:28;19.70;99.90
25046;DHT22;13044;49.304;12.840;2023-08-08T11:02:58;19.70;99.90
25046;DHT22;13044;49.304;12.840;2023-08-08T11:05:28;19.80;99.90
25046;DHT22;13044;49.304;12.840;2023-08-08T11:07:57;19.90;99.90
25046;DHT22;13044;49.304;12.840;2023-08-08T11:10:25;20.00;99.90
25046;DHT22;13044;49.304;12.840;2023-08-08T11:13:03;20.10;99.90
25046;DHT22;13044;49.304;12.840;2023-08-08T11:15:35;20.20;99.90
25046;DHT22;13044;49.304;12.840;2023-08-08T11:18:03;20.20;99.90
25046;DHT22;13044;49.304;12.840;2023-08-08T11:20:32;20.30;99.90
25046;DHT22;13044;49.304;12.840;2023-08-08T11:23:01;20.40;99.90
25046;DHT22;13044;49.304;12.840;2023-08-08T11:25:29;20.30;99.90
25046;DHT22;13044;49.304;12.840;2023-08-08T11:27:58;20.40;99.90
25046;DHT22;13044;49.304;12.840;2023-08-08T11:30:29;20.30;99.90
25046;DHT22;13044;49.304;12.840;2023-08-08T11:32:57;20.30;99.90
25046;DHT22;13044;49.304;12.840;2023-08-08T11:35:27;20.30;99.90
25046;DHT22;13044;49.304;12.840;2023-08-08T11:37:56;20.30;99.90
25046;DHT22;13044;49.304;12.840;2023-08-08T11:40:26;20.30;99.90
25046;DHT22;13044;49.304;12.840;2023-08-08T11:42:55;20.40;99.90
25046;DHT22;13044;49.304;12.840;2023-08-08T11:45:23;20.40;99.90
25046;DHT22;13044;49.304;12.840;2023-08-08T11:47:53;20.50;99.90
25046;DHT22;13044;49.304;12.840;2023-08-08T11:50:22;20.40;99.90
25046;DHT22;13044;49.304;12.840;2023-08-08T11:52:52;20.30;99.90
25046;DHT22;13044;49.304;12.840;2023-08-08T11:55:21;20.20;99.90
25046;DHT22;13044;49.304;12.840;2023-08-08T11:57:55;20.20;99.90
25046;DHT22;13044;49.304;12.840;2023-08-08T12:00:27;20.30;99.90
25046;DHT22;13044;49.304;12.840;2023-08-08T12:02:57;20.40;99.90
25046;DHT22;13044;49.304;12.840;2023-08-08T12:05:25;20.40;99.90
25046;DHT22;13044;49.304;12.840;2023-08-08T12:07:52;20.40;99.90
25046;DHT22;13044;49.304;12.840;2023-08-08T12:10:21;20.50;99.90
25046;DHT22;13044;49.304;12.840;2023-08-08T12:12:56;20.60;99.80
25046;DHT22;13044;49.304;12.840;2023-08-08T12:15:30;20.50;99.70
25046;DHT22;13044;49.304;12.840;2023-08-08T12:18:04;20.50;99.80
25046;DHT22;13044;49.304;12.840;2023-08-08T12:20:31;20.50;99.70
25046;DHT22;13044;49.304;12.840;2023-08-08T12:22:59;20.50;99.20
25046;DHT22;13044;49.304;12.840;2023-08-08T12:25:26;20.50;99.10
25046;DHT22;13044;49.304;12.840;2023-08-08T12:27:53;20.50;99.10
25046;DHT22;13044;49.304;12.840;2023-08-08T12:30:20;20.50;99.20
25046;DHT22;13044;49.304;12.840;2023-08-08T12:32:47;20.40;98.50
25046;DHT22;13044;49.304;12.840;2023-08-08T12:35:14;20.40;98.60
25046;DHT22;13044;49.304;12.840;2023-08-08T12:37:43;20.50;98.00
25046;DHT22;13044;49.304;12.840;2023-08-08T12:40:10;20.50;97.50
25046;DHT22;13044;49.304;12.840;2023-08-08T12:42:38;20.50;97.80
25046;DHT22;13044;49.304;12.840;2023-08-08T12:45:06;20.60;96.50
25046;DHT22;13044;49.304;12.840;2023-08-08T12:47:33;20.60;96.50
25046;DHT22;13044;49.304;12.840;2023-08-08T12:50:04;20.60;95.80
25046;DHT22;13044;49.304;12.840;2023-08-08T12:52:31;20.50;95.00
25046;DHT22;13044;49.304;12.840;2023-08-08T12:54:58;20.60;96.30
25046;DHT22;13044;49.304;12.840;2023-08-08T12:57:26;20.60;96.60
25046;DHT22;13044;49.304;12.840;2023-08-08T12:59:53;20.60;95.10
25046;DHT22;13044;49.304;12.840;2023-08-08T13:02:20;20.60;95.70
25046;DHT22;13044;49.304;12.840;2023-08-08T13:04:47;20.60;94.90
25046;DHT22;13044;49.304;12.840;2023-08-08T13:07:14;20.60;94.70
25046;DHT22;13044;49.304;12.840;2023-08-08T13:09:41;20.60;94.50
25046;DHT22;13044;49.304;12.840;2023-08-08T13:12:08;20.50;94.80
25046;DHT22;13044;49.304;12.840;2023-08-08T13:14:35;20.60;95.30
25046;DHT22;13044;49.304;12.840;2023-08-08T13:17:02;20.60;95.10
25046;DHT22;13044;49.304;12.840;2023-08-08T13:19:29;20.60;95.10
25046;DHT22;13044;49.304;12.840;2023-08-08T13:21:56;20.60;94.60
25046;DHT22;13044;49.304;12.840;2023-08-08T13:24:22;20.60;95.20
25046;DHT22;13044;49.304;12.840;2023-08-08T13:26:50;20.60;95.00
25046;DHT22;13044;49.304;12.840;2023-08-08T13:29:17;20.60;94.90
25046;DHT22;13044;49.304;12.840;2023-08-08T13:31:44;20.60;94.50
25046;DHT22;13044;49.304;12.840;2023-08-08T13:34:10;20.60;94.70
25046;DHT22;13044;49.304;12.840;2023-08-08T13:36:37;20.60;94.60
25046;DHT22;13044;49.304;12.840;2023-08-08T13:39:04;20.60;94.80
25046;DHT22;13044;49.304;12.840;2023-08-08T13:41:31;20.60;94.50
25046;DHT22;13044;49.304;12.840;2023-08-08T13:43:58;20.70;95.10
25046;DHT22;13044;49.304;12.840;2023-08-08T13:46:25;20.70;95.70
25046;DHT22;13044;49.304;12.840;2023-08-08T13:48:52;20.70;93.60
25046;DHT22;13044;49.304;12.840;2023-08-08T13:51:19;20.60;93.50
25046;DHT22;13044;49.304;12.840;2023-08-08T13:53:46;20.70;93.90
25046;DHT22;13044;49.304;12.840;2023-08-08T13:56:16;20.60;93.70
25046;DHT22;13044;49.304;12.840;2023-08-08T13:58:43;20.70;94.80
25046;DHT22;13044;49.304;12.840;2023-08-08T14:01:10;20.80;94.50
25046;DHT22;13044;49.304;12.840;2023-08-08T14:03:37;20.80;95.00
25046;DHT22;13044;49.304;12.840;2023-08-08T14:06:04;20.90;94.50
25046;DHT22;13044;49.304;12.840;2023-08-08T14:08:32;20.90;94.10
25046;DHT22;13044;49.304;12.840;2023-08-08T14:10:59;20.80;92.50
25046;DHT22;13044;49.304;12.840;2023-08-08T14:13:26;20.90;93.60
25046;DHT22;13044;49.304;12.840;2023-08-08T14:15:53;20.90;93.20
25046;DHT22;13044;49.304;12.840;2023-08-08T14:18:20;21.00;92.20
25046;DHT22;13044;49.304;12.840;2023-08-08T14:20:47;21.10;91.00
25046;DHT22;13044;49.304;12.840;2023-08-08T14:23:14;21.00;90.00
25046;DHT22;13044;49.304;12.840;2023-08-08T14:25:41;21.00;89.40
25046;DHT22;13044;49.304;12.840;2023-08-08T14:28:09;21.00;89.70
25046;DHT22;13044;49.304;12.840;2023-08-08T14:30:35;21.00;89.80
25046;DHT22;13044;49.304;12.840;2023-08-08T14:33:03;21.00;90.20
25046;DHT22;13044;49.304;12.840;2023-08-08T14:35:30;21.10;89.60
25046;DHT22;13044;49.304;12.840;2023-08-08T14:37:57;21.10;90.20
25046;DHT22;13044;49.304;12.840;2023-08-08T14:40:24;21.10;88.60
25046;DHT22;13044;49.304;12.840;2023-08-08T14:42:51;21.10;87.70
25046;DHT22;13044;49.304;12.840;2023-08-08T14:45:21;21.10;87.10
25046;DHT22;13044;49.304;12.840;2023-08-08T14:47:48;21.10;86.10
25046;DHT22;13044;49.304;12.840;2023-08-08T14:50:16;21.10;85.50
25046;DHT22;13044;49.304;12.840;2023-08-08T14:52:43;21.10;84.60
25046;DHT22;13044;49.304;12.840;2023-08-08T14:55:10;21.10;85.40
25046;DHT22;13044;49.304;12.840;2023-08-08T14:57:37;21.20;84.80
25046;DHT22;13044;49.304;12.840;2023-08-08T15:00:05;21.20;84.70
25046;DHT22;13044;49.304;12.840;2023-08-08T15:02:33;21.30;84.40
25046;DHT22;13044;49.304;12.840;2023-08-08T15:05:00;21.30;83.90
25046;DHT22;13044;49.304;12.840;2023-08-08T15:07:27;21.20;83.50
25046;DHT22;13044;49.304;12.840;2023-08-08T15:09:54;21.20;82.90
25046;DHT22;13044;49.304;12.840;2023-08-08T15:12:21;21.20;82.10
25046;DHT22;13044;49.304;12.840;2023-08-08T15:14:48;21.20;81.60
25046;DHT22;13044;49.304;12.840;2023-08-08T15:17:15;21.20;82.40
25046;DHT22;13044;49.304;12.840;2023-08-08T15:19:42;21.20;83.30
25046;DHT22;13044;49.304;12.840;2023-08-08T15:22:09;21.10;82.50
25046;DHT22;13044;49.304;12.840;2023-08-08T15:24:36;21.10;83.30